createdAt,value
2023-04-25T00:00:12.738Z,14.45
2023-04-25T00:02:41.444Z,11.17
2023-04-25T00:05:09.516Z,11.25
2023-04-25T00:07:38.067Z,12.07
2023-04-25T00:10:06.238Z,12.20
2023-04-25T00:12:34.670Z,13.63
2023-04-25T00:15:01.934Z,11.60
2023-04-25T00:17:33.247Z,18.48
2023-04-25T00:20:06.647Z,14.23
2023-04-25T00:22:40.747Z,17.10
2023-04-25T00:25:08.925Z,18.13
2023-04-25T00:27:36.927Z,14.43
2023-04-25T00:30:05.522Z,14.63
2023-04-25T00:32:34.467Z,10.35
2023-04-25T00:35:01.702Z,10.85
2023-04-25T00:37:33.690Z,11.10
2023-04-25T00:40:04.630Z,8.57
2023-04-25T00:42:37.481Z,15.52
2023-04-25T00:45:07.488Z,14.45
2023-04-25T00:47:35.383Z,13.77
2023-04-25T00:50:02.653Z,15.38
2023-04-25T00:52:30.837Z,18.63
2023-04-25T00:54:57.956Z,16.45
2023-04-25T00:57:25.865Z,14.45
2023-04-25T00:59:54.183Z,15.02
2023-04-25T01:02:21.941Z,19.70
2023-04-25T01:04:49.714Z,15.77
2023-04-25T01:07:17.378Z,15.35
2023-04-25T01:09:44.562Z,29.52
2023-04-25T01:12:12.301Z,15.10
2023-04-25T01:14:39.635Z,14.32
2023-04-25T01:17:08.754Z,19.50
2023-04-25T01:19:36.751Z,13.85
2023-04-25T01:22:04.933Z,17.52
2023-04-25T01:24:35.406Z,16.58
2023-04-25T01:27:03.710Z,14.07
2023-04-25T01:29:31.396Z,13.57
2023-04-25T01:31:59.747Z,21.48
2023-04-25T01:34:27.007Z,17.10
2023-04-25T01:36:55.000Z,13.98
2023-04-25T01:39:22.994Z,17.38
2023-04-25T01:41:50.583Z,18.60
2023-04-25T01:44:17.840Z,20.50
2023-04-25T01:46:45.110Z,16.30
2023-04-25T01:49:12.756Z,14.77
2023-04-25T01:51:41.733Z,13.38
2023-04-25T01:54:09.755Z,13.20
2023-04-25T01:56:39.183Z,14.82
2023-04-25T01:59:08.412Z,13.27
2023-04-25T02:02:04.959Z,16.08
2023-04-25T02:04:33.952Z,18.63
2023-04-25T02:07:02.183Z,13.33
2023-04-25T02:09:38.246Z,19.55
2023-04-25T02:12:08.866Z,13.77
2023-04-25T02:14:54.249Z,17.02
2023-04-25T02:17:36.445Z,16.38
2023-04-25T02:20:04.310Z,18.47
2023-04-25T02:22:31.685Z,12.85
2023-04-25T02:24:59.104Z,15.70
2023-04-25T02:27:26.396Z,13.27
2023-04-25T02:29:53.456Z,12.73
2023-04-25T02:32:20.628Z,15.90
2023-04-25T02:34:49.139Z,19.10
2023-04-25T02:37:16.291Z,16.23
2023-04-25T02:39:46.170Z,13.13
2023-04-25T02:42:13.324Z,15.38
2023-04-25T02:44:40.535Z,16.70
2023-04-25T02:47:07.704Z,16.90
2023-04-25T02:49:35.302Z,16.95
2023-04-25T02:52:02.398Z,17.08
2023-04-25T02:54:29.563Z,12.05
2023-04-25T02:56:57.744Z,11.27
2023-04-25T02:59:28.988Z,16.70
2023-04-25T03:01:56.538Z,14.20
2023-04-25T03:04:25.116Z,13.75
2023-04-25T03:06:52.874Z,16.77
2023-04-25T03:09:21.743Z,14.63
2023-04-25T03:11:49.287Z,19.30
2023-04-25T03:14:16.494Z,16.13
2023-04-25T03:16:43.602Z,13.82
2023-04-25T03:19:10.775Z,16.25
2023-04-25T03:21:38.654Z,23.03
2023-04-25T03:24:06.190Z,12.45
2023-04-25T03:26:33.384Z,16.25
2023-04-25T03:29:00.802Z,17.48
2023-04-25T03:31:28.933Z,17.70
2023-04-25T03:33:56.165Z,14.07
2023-04-25T03:36:24.581Z,18.25
2023-04-25T03:38:51.854Z,29.63
2023-04-25T03:41:21.351Z,25.48
2023-04-25T03:43:59.206Z,22.35
2023-04-25T03:46:27.708Z,23.47
2023-04-25T03:48:54.789Z,25.15
2023-04-25T03:51:26.917Z,21.20
2023-04-25T03:53:54.198Z,21.83
2023-04-25T03:56:53.017Z,25.02
2023-04-25T03:59:22.706Z,18.87
2023-04-25T04:01:49.871Z,18.83
2023-04-25T04:04:17.201Z,32.75
2023-04-25T04:06:45.205Z,22.00
2023-04-25T04:09:17.409Z,25.23
2023-04-25T04:11:45.500Z,22.03
2023-04-25T04:14:12.686Z,21.08
2023-04-25T04:16:44.255Z,22.98
2023-04-25T04:19:11.675Z,21.40
2023-04-25T04:21:42.372Z,18.20
2023-04-25T04:24:11.488Z,21.43
2023-04-25T04:26:49.959Z,18.90
2023-04-25T04:29:43.089Z,23.80
2023-04-25T04:32:45.859Z,29.65
2023-04-25T04:35:13.274Z,18.95
2023-04-25T04:37:41.087Z,23.23
2023-04-25T04:40:11.680Z,15.68
2023-04-25T04:42:57.572Z,21.63
2023-04-25T04:45:47.513Z,19.25
2023-04-25T04:48:36.385Z,23.65
2023-04-25T04:51:56.338Z,20.40
2023-04-25T04:54:57.421Z,19.10
2023-04-25T04:57:36.965Z,19.23
2023-04-25T05:00:21.936Z,14.95
2023-04-25T05:03:09.564Z,19.77
2023-04-25T05:06:00.044Z,11.57
2023-04-25T05:08:53.933Z,15.32
2023-04-25T05:11:38.039Z,14.27
2023-04-25T05:14:35.777Z,16.75
2023-04-25T05:17:23.223Z,24.55
2023-04-25T05:20:16.525Z,15.20
2023-04-25T05:23:02.336Z,15.15
2023-04-25T05:26:01.840Z,19.98
2023-04-25T05:29:01.538Z,22.95
2023-04-25T05:31:48.873Z,17.83
2023-04-25T05:34:17.845Z,26.70
2023-04-25T05:37:05.044Z,20.98
2023-04-25T05:39:35.403Z,21.38
2023-04-25T05:42:14.356Z,16.58
2023-04-25T05:44:50.702Z,21.77
2023-04-25T05:47:32.875Z,15.53
2023-04-25T05:50:29.167Z,17.50
2023-04-25T05:53:01.755Z,18.35
2023-04-25T05:55:35.569Z,19.63
2023-04-25T05:58:15.441Z,17.42
2023-04-25T06:00:43.319Z,19.20
2023-04-25T06:03:11.086Z,12.60
2023-04-25T06:05:38.420Z,16.48
2023-04-25T06:08:05.559Z,20.75
2023-04-25T06:10:32.731Z,30.25
2023-04-25T06:12:59.976Z,19.07
2023-04-25T06:15:28.920Z,18.55
2023-04-25T06:17:57.098Z,16.05
2023-04-25T06:20:25.668Z,16.23
2023-04-25T06:22:55.202Z,18.92
2023-04-25T06:25:29.274Z,17.57
2023-04-25T06:27:56.874Z,17.85
2023-04-25T06:30:26.794Z,19.27
2023-04-25T06:32:58.869Z,17.95
2023-04-25T06:35:29.076Z,15.73
2023-04-25T06:37:56.426Z,14.80
2023-04-25T06:40:24.896Z,18.40
2023-04-25T06:42:52.590Z,12.27
2023-04-25T06:45:44.073Z,14.55
2023-04-25T06:48:11.835Z,13.48
2023-04-25T06:50:38.927Z,15.90
2023-04-25T06:53:06.132Z,11.43
2023-04-25T06:55:33.287Z,18.35
2023-04-25T06:58:21.378Z,14.98
2023-04-25T07:01:11.234Z,16.25
2023-04-25T07:03:39.435Z,11.83
2023-04-25T07:06:12.722Z,14.27
2023-04-25T07:08:40.182Z,13.75
2023-04-25T07:11:07.837Z,16.27
2023-04-25T07:13:37.564Z,16.35
2023-04-25T07:16:05.388Z,13.10
2023-04-25T07:18:34.879Z,21.00
2023-04-25T07:21:02.903Z,14.98
2023-04-25T07:23:31.652Z,20.67
2023-04-25T07:26:01.648Z,15.35
2023-04-25T07:28:30.061Z,13.33
2023-04-25T07:30:57.036Z,15.88
2023-04-25T07:33:25.883Z,21.98
2023-04-25T07:35:53.523Z,16.42
2023-04-25T07:38:21.007Z,13.25
2023-04-25T07:40:49.474Z,17.80
2023-04-25T07:43:17.980Z,15.07
2023-04-25T07:45:55.561Z,12.07
2023-04-25T07:48:22.686Z,11.20
2023-04-25T07:50:52.645Z,15.65
2023-04-25T07:53:20.052Z,17.07
2023-04-25T07:55:53.072Z,18.92
2023-04-25T07:58:23.207Z,16.13
2023-04-25T08:01:00.020Z,11.73
2023-04-25T08:03:36.535Z,10.02
2023-04-25T08:06:08.314Z,12.47
2023-04-25T08:08:43.727Z,11.98
2023-04-25T08:11:14.005Z,14.80
2023-04-25T08:13:41.056Z,14.80
2023-04-25T08:16:08.298Z,17.83
2023-04-25T08:18:35.932Z,11.70
2023-04-25T08:21:03.102Z,13.43
2023-04-25T08:23:31.106Z,15.15
2023-04-25T08:26:24.349Z,12.82
2023-04-25T08:28:52.503Z,20.17
2023-04-25T08:31:20.112Z,11.40
2023-04-25T08:33:56.419Z,10.45
2023-04-25T08:39:00.239Z,13.57
2023-04-25T08:41:29.136Z,15.07
2023-04-25T08:43:57.413Z,16.67
2023-04-25T08:46:26.006Z,10.43
2023-04-25T08:49:10.855Z,10.38
2023-04-25T08:51:47.758Z,13.77
2023-04-25T08:54:30.667Z,10.15
2023-04-25T08:57:03.601Z,11.83
2023-04-25T08:59:32.396Z,10.40
2023-04-25T09:01:59.773Z,9.95
2023-04-25T09:04:27.132Z,10.65
2023-04-25T09:06:55.956Z,10.38
2023-04-25T09:09:24.617Z,7.63
2023-04-25T09:11:51.832Z,8.70
2023-04-25T09:14:21.892Z,9.85
2023-04-25T09:17:09.076Z,12.68
2023-04-25T09:19:48.827Z,17.38
2023-04-25T09:22:23.888Z,14.33
2023-04-25T09:24:52.347Z,10.23
2023-04-25T09:27:28.202Z,8.88
2023-04-25T09:30:18.461Z,9.40
2023-04-25T09:33:08.824Z,8.40
2023-04-25T09:35:43.433Z,10.53
2023-04-25T09:38:19.293Z,11.65
2023-04-25T09:41:00.000Z,9.80
2023-04-25T09:43:41.003Z,14.45
2023-04-25T09:46:12.785Z,13.43
2023-04-25T09:48:51.030Z,10.43
2023-04-25T09:51:28.148Z,11.23
2023-04-25T09:53:56.738Z,11.85
2023-04-25T09:56:44.700Z,11.93
2023-04-25T09:59:13.443Z,14.98
2023-04-25T10:01:42.624Z,10.43
2023-04-25T10:04:21.681Z,15.95
2023-04-25T10:07:03.390Z,15.55
2023-04-25T10:09:35.059Z,12.40
2023-04-25T10:12:02.815Z,9.70
2023-04-25T10:14:32.391Z,11.70
2023-04-25T10:17:00.682Z,10.80
2023-04-25T10:19:28.641Z,12.90
2023-04-25T10:22:07.218Z,12.23
2023-04-25T10:24:36.379Z,9.73
2023-04-25T10:27:03.605Z,10.23
2023-04-25T10:29:30.821Z,13.30
2023-04-25T10:31:58.371Z,7.38
2023-04-25T10:34:39.807Z,8.05
2023-04-25T10:37:10.515Z,13.63
2023-04-25T10:39:40.987Z,5.70
2023-04-25T10:42:11.532Z,9.50
2023-04-25T10:44:42.354Z,6.57
2023-04-25T10:47:10.965Z,9.23
2023-04-25T10:49:43.137Z,6.20
2023-04-25T10:52:18.282Z,11.73
2023-04-25T10:54:49.232Z,7.05
2023-04-25T10:57:30.863Z,9.57
2023-04-25T11:00:20.701Z,5.60
2023-04-25T11:02:50.232Z,5.93
2023-04-25T11:05:23.777Z,7.53
2023-04-25T11:08:03.854Z,7.55
2023-04-25T11:10:36.759Z,9.48
2023-04-25T11:13:04.351Z,7.35
2023-04-25T11:15:31.578Z,12.93
2023-04-25T11:17:58.883Z,6.50
2023-04-25T11:20:29.901Z,8.63
2023-04-25T11:23:01.196Z,6.70
2023-04-25T11:25:29.163Z,8.73
2023-04-25T11:27:59.379Z,9.20
2023-04-25T11:30:28.045Z,5.63
2023-04-25T11:32:55.295Z,8.32
2023-04-25T11:35:24.480Z,9.30
2023-04-25T11:37:51.633Z,5.70
2023-04-25T11:40:18.929Z,5.85
2023-04-25T11:42:48.265Z,9.93
2023-04-25T11:45:16.053Z,6.75
2023-04-25T11:47:43.273Z,7.70
2023-04-25T11:50:11.127Z,6.00
2023-04-25T11:52:48.581Z,7.28
2023-04-25T11:55:21.055Z,8.07
2023-04-25T11:57:51.212Z,6.28
2023-04-25T12:00:22.735Z,6.28
2023-04-25T12:02:54.947Z,5.82
2023-04-25T12:05:32.642Z,5.93
2023-04-25T12:08:15.514Z,7.60
2023-04-25T12:10:45.042Z,8.70
2023-04-25T12:13:26.539Z,6.80
2023-04-25T12:15:57.040Z,7.25
2023-04-25T12:18:28.748Z,6.35
2023-04-25T12:20:56.504Z,5.10
2023-04-25T12:23:31.837Z,6.88
2023-04-25T12:25:59.095Z,5.25
2023-04-25T12:28:28.814Z,7.55
2023-04-25T12:31:06.340Z,6.28
2023-04-25T12:33:35.782Z,6.53
2023-04-25T12:36:11.464Z,6.82
2023-04-25T12:38:43.501Z,11.07
2023-04-25T12:41:10.609Z,6.80
2023-04-25T12:43:37.785Z,5.93
2023-04-25T12:46:05.149Z,7.70
2023-04-25T12:48:32.505Z,10.80
2023-04-25T12:50:59.957Z,10.27
2023-04-25T12:53:27.322Z,7.70
2023-04-25T12:58:22.653Z,9.43
2023-04-25T13:00:50.090Z,6.57
2023-04-25T13:03:17.747Z,6.68
2023-04-25T13:05:45.196Z,8.32
2023-04-25T13:08:12.579Z,5.55
2023-04-25T13:10:40.535Z,10.03
2023-04-25T13:13:07.839Z,9.05
2023-04-25T13:15:34.881Z,14.23
2023-04-25T13:18:02.145Z,10.23
2023-04-25T13:20:29.292Z,9.70
2023-04-25T13:22:56.433Z,6.77
2023-04-25T13:25:23.636Z,7.47
2023-04-25T13:27:50.849Z,7.93
2023-04-25T13:30:18.104Z,6.10
2023-04-25T13:32:45.426Z,7.88
2023-04-25T13:35:15.006Z,10.90
2023-04-25T13:37:42.210Z,8.07
2023-04-25T13:40:11.238Z,10.07
2023-04-25T13:42:39.531Z,10.10
2023-04-25T13:45:07.403Z,8.48
2023-04-25T13:47:35.643Z,8.97
2023-04-25T13:50:04.337Z,9.65
2023-04-25T13:52:32.894Z,11.30
2023-04-25T13:55:00.696Z,7.00
2023-04-25T13:57:27.937Z,9.98
2023-04-25T13:59:55.250Z,9.60
2023-04-25T14:02:22.441Z,12.60
2023-04-25T14:04:49.610Z,9.23
2023-04-25T14:07:25.502Z,9.38
2023-04-25T14:09:52.534Z,8.60
2023-04-25T14:12:19.670Z,9.73
2023-04-25T14:14:47.012Z,8.13
2023-04-25T14:17:14.129Z,10.23
2023-04-25T14:19:44.438Z,9.73
2023-04-25T14:22:11.671Z,11.50
2023-04-25T14:24:39.558Z,9.20
2023-04-25T14:27:06.781Z,6.70
2023-04-25T14:29:34.095Z,7.75
2023-04-25T14:32:01.870Z,10.50
2023-04-25T14:34:29.058Z,10.77
2023-04-25T14:36:56.187Z,5.90
2023-04-25T14:39:23.327Z,7.97
2023-04-25T14:41:50.571Z,8.70
2023-04-25T14:44:17.897Z,9.45
2023-04-25T14:46:45.236Z,10.65
2023-04-25T14:49:12.453Z,8.97
2023-04-25T14:51:39.544Z,20.55
2023-04-25T14:54:07.384Z,11.80
2023-04-25T14:56:34.613Z,8.82
2023-04-25T14:59:01.726Z,15.60
2023-04-25T15:01:29.431Z,11.30
2023-04-25T15:03:57.117Z,17.33
2023-04-25T15:06:27.655Z,14.82
2023-04-25T15:08:55.147Z,14.57
2023-04-25T15:11:23.173Z,20.73
2023-04-25T15:13:50.790Z,9.10
2023-04-25T15:16:19.379Z,14.18
2023-04-25T15:18:46.780Z,16.40
2023-04-25T15:21:13.942Z,14.35
2023-04-25T15:23:41.599Z,18.05
2023-04-25T15:29:05.674Z,13.95
2023-04-25T15:31:35.379Z,11.45
2023-04-25T15:34:03.564Z,10.85
2023-04-25T15:36:32.358Z,10.07
2023-04-25T15:38:59.427Z,12.40
2023-04-25T15:41:26.764Z,13.57
2023-04-25T15:43:55.085Z,11.82
2023-04-25T15:47:18.047Z,14.80
2023-04-25T15:49:45.098Z,21.60
2023-04-25T15:52:12.580Z,14.47
2023-04-25T15:54:39.622Z,25.50
2023-04-25T15:57:07.976Z,15.02
2023-04-25T15:59:35.267Z,17.48
2023-04-25T16:02:02.656Z,16.25
2023-04-25T16:04:35.658Z,21.03
2023-04-25T16:07:03.845Z,13.38
2023-04-25T16:09:33.968Z,23.23
2023-04-25T16:12:01.353Z,15.27
2023-04-25T16:14:28.459Z,12.43
2023-04-25T16:16:56.009Z,20.43
2023-04-25T16:19:23.262Z,14.73
2023-04-25T16:21:52.268Z,15.55
2023-04-25T16:24:19.368Z,23.50
2023-04-25T16:26:46.559Z,15.63
2023-04-25T16:29:15.358Z,13.93
2023-04-25T16:31:43.571Z,13.57
2023-04-25T16:34:11.001Z,6.78
2023-04-25T16:36:41.537Z,11.18
2023-04-25T16:39:08.868Z,17.25
2023-04-25T16:41:36.383Z,13.27
2023-04-25T16:44:03.586Z,11.15
2023-04-25T16:46:30.807Z,14.13
2023-04-25T16:48:58.173Z,16.65
2023-04-25T16:51:28.236Z,12.65
2023-04-25T16:53:56.383Z,7.63
2023-04-25T16:56:24.853Z,14.40
2023-04-25T16:58:52.956Z,8.02
2023-04-25T17:35:48.051Z,9.10
2023-04-25T17:38:16.509Z,7.03
2023-04-25T17:40:43.689Z,12.20
2023-04-25T17:43:10.798Z,10.05
2023-04-25T17:45:37.859Z,8.77
2023-04-25T17:48:05.334Z,8.50
2023-04-25T17:50:32.441Z,9.98
2023-04-25T17:53:02.866Z,8.77
2023-04-25T17:55:30.393Z,11.95
2023-04-25T17:57:57.514Z,9.30
2023-04-25T18:00:28.208Z,11.53
2023-04-25T18:02:55.548Z,9.23
2023-04-25T18:05:22.750Z,9.98
2023-04-25T18:07:49.876Z,9.23
2023-04-25T18:10:17.711Z,14.55
2023-04-25T18:12:44.842Z,9.43
2023-04-25T18:15:12.684Z,10.50
2023-04-25T18:17:44.003Z,10.20
2023-04-25T18:20:17.027Z,9.68
2023-04-25T18:22:45.424Z,8.05
2023-04-25T18:25:20.653Z,9.47
2023-04-25T18:27:51.318Z,10.25
2023-04-25T18:30:18.352Z,11.52
2023-04-25T18:32:46.308Z,9.55
2023-04-25T18:35:13.433Z,11.07
2023-04-25T18:37:42.348Z,8.40
2023-04-25T18:40:13.935Z,13.10
2023-04-25T18:42:41.827Z,13.48
2023-04-25T18:45:09.867Z,13.88
2023-04-25T18:47:39.660Z,11.43
2023-04-25T18:50:08.334Z,11.97
2023-04-25T18:52:36.718Z,11.25
2023-04-25T18:55:08.601Z,14.10
2023-04-25T18:57:41.189Z,14.07
2023-04-25T19:00:11.509Z,13.52
2023-04-25T19:02:40.525Z,12.73
2023-04-25T19:05:18.119Z,10.82
2023-04-25T19:07:51.430Z,10.77
2023-04-25T19:10:24.214Z,13.70
2023-04-25T19:12:56.242Z,10.75
2023-04-25T19:15:27.846Z,10.80
2023-04-25T19:17:58.855Z,12.30
2023-04-25T19:20:27.651Z,13.85
2023-04-25T19:23:04.003Z,14.48
2023-04-25T19:25:35.768Z,13.52
2023-04-25T19:28:05.353Z,13.97
2023-04-25T19:30:40.256Z,11.38
2023-04-25T19:33:11.490Z,15.93
2023-04-25T19:35:40.005Z,11.60
2023-04-25T19:38:07.448Z,15.77
2023-04-25T19:40:34.650Z,13.17
2023-04-25T19:43:01.815Z,13.13
2023-04-25T19:45:29.161Z,13.27
2023-04-25T19:47:56.375Z,10.70
2023-04-25T19:50:23.487Z,17.83
2023-04-25T19:52:52.164Z,15.90
2023-04-25T19:55:19.816Z,12.77
2023-04-25T19:57:47.478Z,13.75
2023-04-25T20:00:19.832Z,13.48
2023-04-25T20:02:48.543Z,16.17
2023-04-25T20:05:17.052Z,15.83
2023-04-25T20:07:44.223Z,14.77
2023-04-25T20:10:14.132Z,15.20
2023-04-25T20:12:41.780Z,17.88
2023-04-25T20:15:11.707Z,33.20
2023-04-25T20:17:43.272Z,14.57
2023-04-25T20:20:11.519Z,10.55
2023-04-25T20:22:40.440Z,20.13
2023-04-25T20:25:09.976Z,16.90
2023-04-25T20:27:40.526Z,18.35
2023-04-25T20:30:09.346Z,13.57
2023-04-25T20:32:37.135Z,13.73
2023-04-25T20:35:07.509Z,12.18
2023-04-25T20:37:37.784Z,12.50
2023-04-25T20:40:09.491Z,12.60
2023-04-25T20:42:36.735Z,12.47
2023-04-25T20:45:07.760Z,10.82
2023-04-25T20:47:35.224Z,10.65
2023-04-25T20:50:04.123Z,8.88
2023-04-25T20:52:33.201Z,9.65
2023-04-25T20:55:00.349Z,7.67
2023-04-25T20:57:27.597Z,8.70
2023-04-25T20:59:54.604Z,8.85
2023-04-25T21:02:21.724Z,11.55
2023-04-25T21:04:49.102Z,8.77
2023-04-25T21:07:16.176Z,8.30
2023-04-25T21:09:45.666Z,9.18
2023-04-25T21:12:13.005Z,7.32
2023-04-25T21:14:42.795Z,14.57
2023-04-25T21:17:09.883Z,12.45
2023-04-25T21:19:36.979Z,8.10
2023-04-25T21:22:04.111Z,12.95
2023-04-25T21:24:33.244Z,7.65
2023-04-25T21:27:01.425Z,8.60
2023-04-25T21:29:29.274Z,9.00
2023-04-25T21:31:56.915Z,8.33
2023-04-25T21:34:24.029Z,9.45
2023-04-25T21:36:51.281Z,9.18
2023-04-25T21:39:19.166Z,9.15
2023-04-25T21:41:46.487Z,6.35
2023-04-25T21:44:14.610Z,11.80
2023-04-25T21:46:42.072Z,5.32
2023-04-25T21:49:09.157Z,6.22
2023-04-25T21:51:36.405Z,9.52
2023-04-25T21:54:05.592Z,7.63
2023-04-25T21:56:33.187Z,7.27
2023-04-25T21:59:00.438Z,10.13
2023-04-25T22:01:28.710Z,7.90
2023-04-25T22:03:56.175Z,8.23
2023-04-25T22:06:23.701Z,9.07
2023-04-25T22:08:51.010Z,6.60
2023-04-25T22:11:18.307Z,7.07
2023-04-25T22:13:45.684Z,7.68
2023-04-25T22:16:13.099Z,7.32
2023-04-25T22:18:40.864Z,6.13
2023-04-25T22:21:08.856Z,7.77
2023-04-25T22:23:37.344Z,8.95
2023-04-25T22:26:05.396Z,6.65
2023-04-25T22:28:33.297Z,7.53
2023-04-25T22:31:00.504Z,6.63
2023-04-25T22:33:27.617Z,7.83
2023-04-25T22:35:54.717Z,7.25
2023-04-25T22:38:22.157Z,7.28
2023-04-25T22:40:49.377Z,7.10
2023-04-25T22:43:16.622Z,8.60
2023-04-25T22:45:43.743Z,9.23
2023-04-25T22:48:10.867Z,7.55
2023-04-25T22:50:40.562Z,6.95
2023-04-25T22:53:10.694Z,8.85
2023-04-25T22:55:37.774Z,7.60
2023-04-25T22:58:05.180Z,8.90
2023-04-25T23:00:34.496Z,8.70
2023-04-25T23:03:05.841Z,9.05
2023-04-25T23:05:33.278Z,6.15
2023-04-25T23:08:00.529Z,14.63
2023-04-25T23:10:30.844Z,8.60
2023-04-25T23:13:00.643Z,7.47
2023-04-25T23:15:28.369Z,6.22
2023-04-25T23:17:55.823Z,6.22
2023-04-25T23:20:23.664Z,9.10
2023-04-25T23:22:51.343Z,7.67
2023-04-25T23:25:19.155Z,7.15
2023-04-25T23:27:46.368Z,8.77
2023-04-25T23:30:14.340Z,6.72
2023-04-25T23:32:42.415Z,6.15
2023-04-25T23:35:10.339Z,6.13
2023-04-25T23:37:38.787Z,6.80
2023-04-25T23:40:10.767Z,8.60
2023-04-25T23:42:38.714Z,6.55
2023-04-25T23:45:07.398Z,7.38
2023-04-25T23:47:36.122Z,7.20
2023-04-25T23:50:04.523Z,6.85
2023-04-25T23:52:32.637Z,7.63
2023-04-25T23:54:59.775Z,6.75
2023-04-25T23:57:26.995Z,6.88
2023-04-25T23:59:54.314Z,6.30
